This is the latest recevied weather packets stored in our database for station/object W4MLN-1. If no packets are shown the sender has not sent any weather packets the latest 10 day(s).
| Time | Temp. | Humidity | Pressure | Rain* | Wind** | Luminosity | Snow |
|---|---|---|---|---|---|---|---|
| 1777926292 | 21.11° C | 48% | 1013.9 hPa | 0 mm | - | 697 W/m² | - |
| 1777925992 | 20.56° C | 51% | 1013.9 hPa | 0 mm | - | 710 W/m² | - |
| 1777925692 | 20.56° C | 50% | 1014 hPa | 0 mm | - | 736 W/m² | - |
| 1777925393 | 20.56° C | 51% | 1013.9 hPa | 0 mm | - | 748 W/m² | - |
| 1777925092 | 20.56° C | 51% | 1014.1 hPa | 0 mm | - | 766 W/m² | - |
| 1777924790 | 20° C | 51% | 1014.3 hPa | 0 mm | - | 779 W/m² | - |
| 1777924489 | 20° C | 52% | 1014.4 hPa | 0 mm | - | 781 W/m² | - |
| 1777924187 | 20° C | 51% | 1014.4 hPa | 0 mm | - | 809 W/m² | - |
| 1777923887 | 20° C | 53% | 1014.4 hPa | 0 mm | - | 820 W/m² | - |
| 1777923587 | 20.56° C | 53% | 1014.5 hPa | 0 mm | - | 842 W/m² | - |
| 1777923287 | 20.56° C | 52% | 1014.6 hPa | 0 mm | - | 851 W/m² | - |
| 1777922987 | 20° C | 56% | 1014.7 hPa | 0 mm | - | 681 W/m² | - |
| 1777922687 | 20° C | 54% | 1014.8 hPa | 0 mm | - | 840 W/m² | - |
| 1777922387 | 19.44° C | 54% | 1014.8 hPa | 0 mm | - | 865 W/m² | - |
| 1777922087 | 19.44° C | 53% | 1014.9 hPa | 0 mm | - | 884 W/m² | - |
| 1777921788 | 19.44° C | 55% | 1015 hPa | 0 mm | - | 861 W/m² | - |
| 1777921487 | 18.89° C | 54% | 1015 hPa | 0 mm | - | 812 W/m² | - |
| 1777921188 | 18.89° C | 54% | 1015.2 hPa | 0 mm | - | 716 W/m² | - |
| 1777920884 | 19.44° C | 53% | 1015.2 hPa | 0 mm | - | 706 W/m² | - |
| 1777920582 | 19.44° C | 53% | 1015.3 hPa | 0 mm | - | 705 W/m² | - |
| 1777920281 | 18.89° C | 56% | 1015.3 hPa | 0 mm | - | 722 W/m² | - |
| 1777919982 | 18.89° C | 54% | 1015.4 hPa | 0 mm | - | 849 W/m² | - |
| 1777919683 | 18.33° C | 53% | 1015.4 hPa | 0 mm | - | 857 W/m² | - |
| 1777919382 | 18.33° C | 53% | 1015.4 hPa | 0 mm | - | 778 W/m² | - |
| 1777919082 | 18.33° C | 55% | 1015.7 hPa | 0 mm | - | 614 W/m² | - |
* Rain latest hour (hover to see other rain measurements)
** Current wind speed in m/s (hover to see current wind gust speed)